sensor_id;sensor_type;location;lat;lon;timestamp;temperature;humidity
39777;DHT22;25453;48.162;14.510;2023-03-01T00:00:03;3.90;58.20
39777;DHT22;25453;48.162;14.510;2023-03-01T00:02:31;4.00;58.30
39777;DHT22;25453;48.162;14.510;2023-03-01T00:04:58;4.10;58.30
39777;DHT22;25453;48.162;14.510;2023-03-01T00:07:24;4.20;58.20
39777;DHT22;25453;48.162;14.510;2023-03-01T00:09:51;4.30;58.00
39777;DHT22;25453;48.162;14.510;2023-03-01T00:12:18;4.30;57.90
39777;DHT22;25453;48.162;14.510;2023-03-01T00:14:45;4.40;57.70
39777;DHT22;25453;48.162;14.510;2023-03-01T00:17:12;4.40;57.60
39777;DHT22;25453;48.162;14.510;2023-03-01T00:19:39;4.50;57.30
39777;DHT22;25453;48.162;14.510;2023-03-01T00:22:06;4.50;56.90
39777;DHT22;25453;48.162;14.510;2023-03-01T00:24:33;4.50;56.70
39777;DHT22;25453;48.162;14.510;2023-03-01T00:27:00;4.50;56.40
39777;DHT22;25453;48.162;14.510;2023-03-01T00:29:27;4.50;56.20
39777;DHT22;25453;48.162;14.510;2023-03-01T00:31:54;4.40;56.00
39777;DHT22;25453;48.162;14.510;2023-03-01T00:34:21;4.40;55.90
39777;DHT22;25453;48.162;14.510;2023-03-01T00:36:47;4.30;55.80
39777;DHT22;25453;48.162;14.510;2023-03-01T00:39:14;4.30;55.70
39777;DHT22;25453;48.162;14.510;2023-03-01T00:41:42;4.20;55.70
39777;DHT22;25453;48.162;14.510;2023-03-01T00:44:09;4.20;55.70
39777;DHT22;25453;48.162;14.510;2023-03-01T00:46:36;4.10;55.90
39777;DHT22;25453;48.162;14.510;2023-03-01T00:49:04;4.10;55.80
39777;DHT22;25453;48.162;14.510;2023-03-01T00:51:31;4.00;56.30
39777;DHT22;25453;48.162;14.510;2023-03-01T00:53:59;4.10;56.60
39777;DHT22;25453;48.162;14.510;2023-03-01T00:56:26;4.10;56.50
39777;DHT22;25453;48.162;14.510;2023-03-01T00:58:54;4.20;56.20
39777;DHT22;25453;48.162;14.510;2023-03-01T01:01:23;4.20;56.30
39777;DHT22;25453;48.162;14.510;2023-03-01T01:03:51;4.20;56.20
39777;DHT22;25453;48.162;14.510;2023-03-01T01:06:20;4.20;56.20
39777;DHT22;25453;48.162;14.510;2023-03-01T01:08:47;4.20;56.00
39777;DHT22;25453;48.162;14.510;2023-03-01T01:11:15;4.20;56.10
39777;DHT22;25453;48.162;14.510;2023-03-01T01:13:43;4.20;55.90
39777;DHT22;25453;48.162;14.510;2023-03-01T01:16:11;4.20;56.00
39777;DHT22;25453;48.162;14.510;2023-03-01T01:18:38;4.20;56.20
39777;DHT22;25453;48.162;14.510;2023-03-01T01:21:06;4.20;56.40
39777;DHT22;25453;48.162;14.510;2023-03-01T01:23:34;4.20;56.10
39777;DHT22;25453;48.162;14.510;2023-03-01T01:26:05;4.30;56.00
39777;DHT22;25453;48.162;14.510;2023-03-01T01:28:32;4.30;55.90
39777;DHT22;25453;48.162;14.510;2023-03-01T01:30:59;4.30;55.50
39777;DHT22;25453;48.162;14.510;2023-03-01T01:33:26;4.20;55.60
39777;DHT22;25453;48.162;14.510;2023-03-01T01:35:54;4.20;55.40
39777;DHT22;25453;48.162;14.510;2023-03-01T01:38:21;4.10;55.10
39777;DHT22;25453;48.162;14.510;2023-03-01T01:40:48;4.00;55.30
39777;DHT22;25453;48.162;14.510;2023-03-01T01:43:20;4.00;55.50
39777;DHT22;25453;48.162;14.510;2023-03-01T01:45:47;3.90;55.50
39777;DHT22;25453;48.162;14.510;2023-03-01T01:48:16;3.90;55.90
39777;DHT22;25453;48.162;14.510;2023-03-01T01:50:45;3.90;55.70
39777;DHT22;25453;48.162;14.510;2023-03-01T01:53:18;3.80;55.90
39777;DHT22;25453;48.162;14.510;2023-03-01T01:55:47;3.80;56.00
39777;DHT22;25453;48.162;14.510;2023-03-01T01:58:17;3.80;56.00
39777;DHT22;25453;48.162;14.510;2023-03-01T02:00:45;3.70;56.30
39777;DHT22;25453;48.162;14.510;2023-03-01T02:03:14;3.70;56.40
39777;DHT22;25453;48.162;14.510;2023-03-01T02:08:21;3.70;56.60
39777;DHT22;25453;48.162;14.510;2023-03-01T02:10:49;3.70;56.60
39777;DHT22;25453;48.162;14.510;2023-03-01T02:13:17;3.70;56.50
39777;DHT22;25453;48.162;14.510;2023-03-01T02:15:44;3.70;56.70
39777;DHT22;25453;48.162;14.510;2023-03-01T02:18:12;3.70;56.80
39777;DHT22;25453;48.162;14.510;2023-03-01T02:23:16;3.80;57.10
39777;DHT22;25453;48.162;14.510;2023-03-01T02:30:40;3.90;57.30
39777;DHT22;25453;48.162;14.510;2023-03-01T02:33:27;3.90;57.10
39777;DHT22;25453;48.162;14.510;2023-03-01T02:35:54;3.90;57.10
39777;DHT22;25453;48.162;14.510;2023-03-01T02:38:22;3.90;57.30
39777;DHT22;25453;48.162;14.510;2023-03-01T02:40:49;4.00;57.30
39777;DHT22;25453;48.162;14.510;2023-03-01T02:43:16;4.00;57.30
39777;DHT22;25453;48.162;14.510;2023-03-01T02:45:48;4.10;57.20
39777;DHT22;25453;48.162;14.510;2023-03-01T02:48:16;4.10;57.20
39777;DHT22;25453;48.162;14.510;2023-03-01T02:51:01;4.10;57.10
39777;DHT22;25453;48.162;14.510;2023-03-01T02:53:41;4.10;57.00
39777;DHT22;25453;48.162;14.510;2023-03-01T02:56:14;4.10;56.80
39777;DHT22;25453;48.162;14.510;2023-03-01T02:58:41;4.10;56.70
39777;DHT22;25453;48.162;14.510;2023-03-01T03:01:13;4.10;57.00
39777;DHT22;25453;48.162;14.510;2023-03-01T03:03:42;4.00;56.70
39777;DHT22;25453;48.162;14.510;2023-03-01T03:06:09;4.00;56.50
39777;DHT22;25453;48.162;14.510;2023-03-01T03:08:36;3.90;56.60
39777;DHT22;25453;48.162;14.510;2023-03-01T03:11:03;3.90;56.70
39777;DHT22;25453;48.162;14.510;2023-03-01T03:13:30;3.90;56.70
39777;DHT22;25453;48.162;14.510;2023-03-01T03:15:58;3.80;56.50
39777;DHT22;25453;48.162;14.510;2023-03-01T03:18:25;3.80;56.60
39777;DHT22;25453;48.162;14.510;2023-03-01T03:20:53;3.80;56.80
39777;DHT22;25453;48.162;14.510;2023-03-01T03:23:20;3.70;56.90
39777;DHT22;25453;48.162;14.510;2023-03-01T03:25:48;3.80;57.20
39777;DHT22;25453;48.162;14.510;2023-03-01T03:28:16;3.80;57.20
39777;DHT22;25453;48.162;14.510;2023-03-01T03:30:43;3.80;57.00
39777;DHT22;25453;48.162;14.510;2023-03-01T03:33:10;3.80;57.00
39777;DHT22;25453;48.162;14.510;2023-03-01T03:35:46;3.70;57.10
39777;DHT22;25453;48.162;14.510;2023-03-01T03:38:14;3.70;57.10
39777;DHT22;25453;48.162;14.510;2023-03-01T03:40:45;3.70;56.90
39777;DHT22;25453;48.162;14.510;2023-03-01T03:43:13;3.70;57.10
39777;DHT22;25453;48.162;14.510;2023-03-01T03:45:40;3.60;57.30
39777;DHT22;25453;48.162;14.510;2023-03-01T03:48:08;3.60;57.40
39777;DHT22;25453;48.162;14.510;2023-03-01T03:50:36;3.70;57.50
39777;DHT22;25453;48.162;14.510;2023-03-01T03:53:05;3.70;57.50
39777;DHT22;25453;48.162;14.510;2023-03-01T03:55:32;3.70;57.60
39777;DHT22;25453;48.162;14.510;2023-03-01T03:58:01;3.70;57.70
39777;DHT22;25453;48.162;14.510;2023-03-01T04:00:34;3.70;57.60
39777;DHT22;25453;48.162;14.510;2023-03-01T04:03:02;3.70;57.50
39777;DHT22;25453;48.162;14.510;2023-03-01T04:05:29;3.80;57.50
39777;DHT22;25453;48.162;14.510;2023-03-01T04:07:56;3.80;57.30
39777;DHT22;25453;48.162;14.510;2023-03-01T04:10:33;3.70;57.40
39777;DHT22;25453;48.162;14.510;2023-03-01T04:13:00;3.80;57.50
39777;DHT22;25453;48.162;14.510;2023-03-01T04:15:27;3.80;57.50
39777;DHT22;25453;48.162;14.510;2023-03-01T04:17:54;3.80;57.30
39777;DHT22;25453;48.162;14.510;2023-03-01T04:20:23;3.80;57.30
39777;DHT22;25453;48.162;14.510;2023-03-01T04:22:56;3.80;57.40
39777;DHT22;25453;48.162;14.510;2023-03-01T04:25:35;3.80;57.40
39777;DHT22;25453;48.162;14.510;2023-03-01T04:28:01;3.80;57.40
39777;DHT22;25453;48.162;14.510;2023-03-01T04:30:28;3.80;57.40
39777;DHT22;25453;48.162;14.510;2023-03-01T04:32:55;3.80;57.40
39777;DHT22;25453;48.162;14.510;2023-03-01T04:35:22;3.80;57.50
39777;DHT22;25453;48.162;14.510;2023-03-01T04:37:50;3.80;57.50
39777;DHT22;25453;48.162;14.510;2023-03-01T04:40:17;3.80;57.50
39777;DHT22;25453;48.162;14.510;2023-03-01T04:42:44;3.80;57.40
39777;DHT22;25453;48.162;14.510;2023-03-01T04:45:11;3.80;57.20
39777;DHT22;25453;48.162;14.510;2023-03-01T04:47:43;3.70;57.10
39777;DHT22;25453;48.162;14.510;2023-03-01T04:50:11;3.70;57.30
39777;DHT22;25453;48.162;14.510;2023-03-01T04:52:38;3.70;57.40
39777;DHT22;25453;48.162;14.510;2023-03-01T04:55:06;3.70;57.40
39777;DHT22;25453;48.162;14.510;2023-03-01T04:57:33;3.60;57.30
39777;DHT22;25453;48.162;14.510;2023-03-01T05:00:00;3.60;57.30
39777;DHT22;25453;48.162;14.510;2023-03-01T05:02:27;3.60;57.30
39777;DHT22;25453;48.162;14.510;2023-03-01T05:04:54;3.50;57.60
39777;DHT22;25453;48.162;14.510;2023-03-01T05:07:24;3.50;57.40
39777;DHT22;25453;48.162;14.510;2023-03-01T05:09:51;3.40;57.30
39777;DHT22;25453;48.162;14.510;2023-03-01T05:12:20;3.40;57.40
39777;DHT22;25453;48.162;14.510;2023-03-01T05:14:47;3.40;57.70
39777;DHT22;25453;48.162;14.510;2023-03-01T05:17:14;3.40;57.90
39777;DHT22;25453;48.162;14.510;2023-03-01T05:19:41;3.50;57.90
39777;DHT22;25453;48.162;14.510;2023-03-01T05:22:09;3.50;57.70
39777;DHT22;25453;48.162;14.510;2023-03-01T05:24:36;3.50;57.80
39777;DHT22;25453;48.162;14.510;2023-03-01T05:27:03;3.50;57.90
39777;DHT22;25453;48.162;14.510;2023-03-01T05:29:30;3.50;57.80
39777;DHT22;25453;48.162;14.510;2023-03-01T05:31:58;3.50;57.80
39777;DHT22;25453;48.162;14.510;2023-03-01T05:34:30;3.40;57.80
39777;DHT22;25453;48.162;14.510;2023-03-01T05:36:57;3.40;57.90
39777;DHT22;25453;48.162;14.510;2023-03-01T05:39:25;3.40;58.00
39777;DHT22;25453;48.162;14.510;2023-03-01T05:41:53;3.50;58.10
39777;DHT22;25453;48.162;14.510;2023-03-01T05:44:20;3.50;58.20
39777;DHT22;25453;48.162;14.510;2023-03-01T05:46:47;3.50;57.80
39777;DHT22;25453;48.162;14.510;2023-03-01T05:49:14;3.50;57.80
39777;DHT22;25453;48.162;14.510;2023-03-01T05:51:42;3.50;57.90
39777;DHT22;25453;48.162;14.510;2023-03-01T05:54:09;3.40;57.80
39777;DHT22;25453;48.162;14.510;2023-03-01T05:56:36;3.40;57.80
39777;DHT22;25453;48.162;14.510;2023-03-01T05:59:04;3.40;58.00
39777;DHT22;25453;48.162;14.510;2023-03-01T06:01:32;3.30;57.90
39777;DHT22;25453;48.162;14.510;2023-03-01T06:03:58;3.30;57.70
39777;DHT22;25453;48.162;14.510;2023-03-01T06:06:26;3.20;57.80
39777;DHT22;25453;48.162;14.510;2023-03-01T06:08:54;3.10;58.10
39777;DHT22;25453;48.162;14.510;2023-03-01T06:11:22;3.10;58.50
39777;DHT22;25453;48.162;14.510;2023-03-01T06:13:49;3.10;58.70
39777;DHT22;25453;48.162;14.510;2023-03-01T06:16:16;3.10;58.70
39777;DHT22;25453;48.162;14.510;2023-03-01T06:18:43;3.10;59.00
39777;DHT22;25453;48.162;14.510;2023-03-01T06:21:10;3.20;59.10
39777;DHT22;25453;48.162;14.510;2023-03-01T06:23:38;3.20;59.20
39777;DHT22;25453;48.162;14.510;2023-03-01T06:26:05;3.30;59.20
39777;DHT22;25453;48.162;14.510;2023-03-01T06:28:33;3.30;59.40
39777;DHT22;25453;48.162;14.510;2023-03-01T06:31:00;3.40;59.40
39777;DHT22;25453;48.162;14.510;2023-03-01T06:33:26;3.50;59.20
39777;DHT22;25453;48.162;14.510;2023-03-01T06:35:54;3.50;59.10
39777;DHT22;25453;48.162;14.510;2023-03-01T06:38:21;3.50;59.10
39777;DHT22;25453;48.162;14.510;2023-03-01T06:40:52;3.60;59.00
39777;DHT22;25453;48.162;14.510;2023-03-01T06:43:20;3.60;58.70
39777;DHT22;25453;48.162;14.510;2023-03-01T06:45:47;3.60;58.80
39777;DHT22;25453;48.162;14.510;2023-03-01T06:48:14;3.70;58.90
39777;DHT22;25453;48.162;14.510;2023-03-01T06:50:41;3.70;58.90
39777;DHT22;25453;48.162;14.510;2023-03-01T06:53:09;3.80;59.00
39777;DHT22;25453;48.162;14.510;2023-03-01T06:55:40;3.80;58.70
39777;DHT22;25453;48.162;14.510;2023-03-01T06:58:08;3.80;58.30
39777;DHT22;25453;48.162;14.510;2023-03-01T07:00:35;3.80;58.30
39777;DHT22;25453;48.162;14.510;2023-03-01T07:03:02;3.80;58.40
39777;DHT22;25453;48.162;14.510;2023-03-01T07:05:30;3.80;58.00
39777;DHT22;25453;48.162;14.510;2023-03-01T07:07:57;3.80;58.20
39777;DHT22;25453;48.162;14.510;2023-03-01T07:10:24;3.70;58.40
39777;DHT22;25453;48.162;14.510;2023-03-01T07:12:54;3.80;58.30
39777;DHT22;25453;48.162;14.510;2023-03-01T07:15:20;3.70;58.30
39777;DHT22;25453;48.162;14.510;2023-03-01T07:17:47;3.80;58.50
39777;DHT22;25453;48.162;14.510;2023-03-01T07:20:18;3.80;58.60
39777;DHT22;25453;48.162;14.510;2023-03-01T07:22:45;3.90;58.70
39777;DHT22;25453;48.162;14.510;2023-03-01T07:25:12;3.90;58.70
39777;DHT22;25453;48.162;14.510;2023-03-01T07:27:39;4.00;58.70
39777;DHT22;25453;48.162;14.510;2023-03-01T07:30:07;4.00;58.70
39777;DHT22;25453;48.162;14.510;2023-03-01T07:32:34;4.00;58.60
39777;DHT22;25453;48.162;14.510;2023-03-01T07:35:01;4.10;58.70
39777;DHT22;25453;48.162;14.510;2023-03-01T07:37:28;4.10;58.30
39777;DHT22;25453;48.162;14.510;2023-03-01T07:39:55;4.20;58.30
39777;DHT22;25453;48.162;14.510;2023-03-01T07:42:22;4.20;58.60
39777;DHT22;25453;48.162;14.510;2023-03-01T07:44:49;4.30;58.60
39777;DHT22;25453;48.162;14.510;2023-03-01T07:47:15;4.40;58.10
39777;DHT22;25453;48.162;14.510;2023-03-01T07:49:42;4.40;58.00
39777;DHT22;25453;48.162;14.510;2023-03-01T07:52:10;4.40;57.90
39777;DHT22;25453;48.162;14.510;2023-03-01T07:54:38;4.50;57.70
39777;DHT22;25453;48.162;14.510;2023-03-01T07:57:05;4.50;57.70
39777;DHT22;25453;48.162;14.510;2023-03-01T07:59:32;4.50;57.60
39777;DHT22;25453;48.162;14.510;2023-03-01T08:02:00;4.50;57.10
39777;DHT22;25453;48.162;14.510;2023-03-01T08:04:27;4.50;57.70
39777;DHT22;25453;48.162;14.510;2023-03-01T08:06:54;4.60;57.60
39777;DHT22;25453;48.162;14.510;2023-03-01T08:09:21;4.70;57.40
39777;DHT22;25453;48.162;14.510;2023-03-01T08:11:48;4.70;57.00
39777;DHT22;25453;48.162;14.510;2023-03-01T08:14:15;4.80;56.70
39777;DHT22;25453;48.162;14.510;2023-03-01T08:16:42;4.80;57.00
39777;DHT22;25453;48.162;14.510;2023-03-01T08:19:10;4.90;56.60
39777;DHT22;25453;48.162;14.510;2023-03-01T08:21:37;4.90;56.40
39777;DHT22;25453;48.162;14.510;2023-03-01T08:24:04;5.00;56.90
39777;DHT22;25453;48.162;14.510;2023-03-01T08:26:33;5.10;56.50
39777;DHT22;25453;48.162;14.510;2023-03-01T08:29:00;5.20;56.20
39777;DHT22;25453;48.162;14.510;2023-03-01T08:31:34;5.20;56.10
39777;DHT22;25453;48.162;14.510;2023-03-01T08:34:03;5.30;55.50
39777;DHT22;25453;48.162;14.510;2023-03-01T08:36:37;5.40;55.40
39777;DHT22;25453;48.162;14.510;2023-03-01T08:39:05;5.50;55.50
39777;DHT22;25453;48.162;14.510;2023-03-01T08:41:32;5.60;55.50
39777;DHT22;25453;48.162;14.510;2023-03-01T08:43:59;5.70;55.60
39777;DHT22;25453;48.162;14.510;2023-03-01T08:46:30;5.90;55.70
39777;DHT22;25453;48.162;14.510;2023-03-01T08:48:58;6.10;55.80
39777;DHT22;25453;48.162;14.510;2023-03-01T08:51:25;6.30;54.20
39777;DHT22;25453;48.162;14.510;2023-03-01T08:53:52;6.40;53.90
39777;DHT22;25453;48.162;14.510;2023-03-01T08:56:19;6.60;53.90
39777;DHT22;25453;48.162;14.510;2023-03-01T08:58:47;6.70;52.80
39777;DHT22;25453;48.162;14.510;2023-03-01T09:01:16;6.80;53.10
39777;DHT22;25453;48.162;14.510;2023-03-01T09:03:43;6.90;53.40
39777;DHT22;25453;48.162;14.510;2023-03-01T09:06:11;7.00;53.70
39777;DHT22;25453;48.162;14.510;2023-03-01T09:08:39;7.30;53.10
39777;DHT22;25453;48.162;14.510;2023-03-01T09:11:06;7.40;52.70
39777;DHT22;25453;48.162;14.510;2023-03-01T09:13:34;7.70;52.80
39777;DHT22;25453;48.162;14.510;2023-03-01T09:16:01;7.80;52.00
39777;DHT22;25453;48.162;14.510;2023-03-01T09:18:29;8.00;52.60
39777;DHT22;25453;48.162;14.510;2023-03-01T09:21:06;8.30;51.90
39777;DHT22;25453;48.162;14.510;2023-03-01T09:23:36;8.50;50.50
39777;DHT22;25453;48.162;14.510;2023-03-01T09:26:06;8.60;49.60
39777;DHT22;25453;48.162;14.510;2023-03-01T09:28:33;8.70;48.80
39777;DHT22;25453;48.162;14.510;2023-03-01T09:31:00;8.80;49.20
39777;DHT22;25453;48.162;14.510;2023-03-01T09:33:27;8.90;48.30
39777;DHT22;25453;48.162;14.510;2023-03-01T09:38:27;9.10;49.60
39777;DHT22;25453;48.162;14.510;2023-03-01T09:40:54;9.30;49.10
39777;DHT22;25453;48.162;14.510;2023-03-01T09:46:08;9.60;47.10
39777;DHT22;25453;48.162;14.510;2023-03-01T09:48:48;9.60;48.00
39777;DHT22;25453;48.162;14.510;2023-03-01T09:51:18;9.80;47.20
39777;DHT22;25453;48.162;14.510;2023-03-01T09:53:46;9.80;47.10
39777;DHT22;25453;48.162;14.510;2023-03-01T09:56:20;9.90;46.90
39777;DHT22;25453;48.162;14.510;2023-03-01T10:04:38;10.40;46.80
39777;DHT22;25453;48.162;14.510;2023-03-01T10:06:41;10.50;46.60
39777;DHT22;25453;48.162;14.510;2023-03-01T10:09:12;10.70;47.50
39777;DHT22;25453;48.162;14.510;2023-03-01T10:11:50;11.00;47.50
39777;DHT22;25453;48.162;14.510;2023-03-01T10:20:14;11.40;45.00
39777;DHT22;25453;48.162;14.510;2023-03-01T10:22:42;11.40;45.20
39777;DHT22;25453;48.162;14.510;2023-03-01T10:25:13;11.40;44.80
39777;DHT22;25453;48.162;14.510;2023-03-01T10:27:49;11.30;44.60
39777;DHT22;25453;48.162;14.510;2023-03-01T10:30:22;11.20;44.60
39777;DHT22;25453;48.162;14.510;2023-03-01T10:32:53;11.20;45.20
39777;DHT22;25453;48.162;14.510;2023-03-01T10:35:22;11.20;44.70
39777;DHT22;25453;48.162;14.510;2023-03-01T10:38:46;11.10;45.10
39777;DHT22;25453;48.162;14.510;2023-03-01T10:40:52;11.10;45.20
39777;DHT22;25453;48.162;14.510;2023-03-01T10:43:20;11.20;45.20
39777;DHT22;25453;48.162;14.510;2023-03-01T10:45:48;11.20;44.60
39777;DHT22;25453;48.162;14.510;2023-03-01T10:50:43;11.10;45.00
39777;DHT22;25453;48.162;14.510;2023-03-01T10:56:15;11.30;45.30
39777;DHT22;25453;48.162;14.510;2023-03-01T10:59:03;11.40;45.70
39777;DHT22;25453;48.162;14.510;2023-03-01T11:01:32;11.60;45.50
39777;DHT22;25453;48.162;14.510;2023-03-01T11:06:30;11.80;45.30
39777;DHT22;25453;48.162;14.510;2023-03-01T11:08:56;11.90;45.30
39777;DHT22;25453;48.162;14.510;2023-03-01T11:13:56;12.00;44.80
39777;DHT22;25453;48.162;14.510;2023-03-01T11:16:28;12.00;44.50
39777;DHT22;25453;48.162;14.510;2023-03-01T11:18:56;12.00;44.90
39777;DHT22;25453;48.162;14.510;2023-03-01T11:21:24;12.00;45.00
39777;DHT22;25453;48.162;14.510;2023-03-01T11:23:51;12.00;44.70
39777;DHT22;25453;48.162;14.510;2023-03-01T11:26:18;12.10;44.80
39777;DHT22;25453;48.162;14.510;2023-03-01T11:28:48;12.10;44.60
39777;DHT22;25453;48.162;14.510;2023-03-01T11:31:17;12.00;44.10
39777;DHT22;25453;48.162;14.510;2023-03-01T11:33:56;12.00;44.80
39777;DHT22;25453;48.162;14.510;2023-03-01T11:41:49;12.20;44.80
39777;DHT22;25453;48.162;14.510;2023-03-01T11:44:21;12.20;44.40
39777;DHT22;25453;48.162;14.510;2023-03-01T11:56:57;12.40;44.70
39777;DHT22;25453;48.162;14.510;2023-03-01T12:05:05;12.30;44.20
39777;DHT22;25453;48.162;14.510;2023-03-01T12:15:18;12.20;44.80
39777;DHT22;25453;48.162;14.510;2023-03-01T12:18:03;12.10;45.10
39777;DHT22;25453;48.162;14.510;2023-03-01T12:23:26;12.20;45.80
39777;DHT22;25453;48.162;14.510;2023-03-01T12:25:54;12.20;45.90
39777;DHT22;25453;48.162;14.510;2023-03-01T12:36:30;12.40;45.60
39777;DHT22;25453;48.162;14.510;2023-03-01T12:41:35;12.30;45.90
39777;DHT22;25453;48.162;14.510;2023-03-01T12:46:49;12.20;45.70
39777;DHT22;25453;48.162;14.510;2023-03-01T12:49:21;12.20;45.50
39777;DHT22;25453;48.162;14.510;2023-03-01T12:51:51;12.10;45.80
39777;DHT22;25453;48.162;14.510;2023-03-01T12:54:26;12.00;46.10
39777;DHT22;25453;48.162;14.510;2023-03-01T12:56:54;11.90;46.10
39777;DHT22;25453;48.162;14.510;2023-03-01T12:59:24;11.80;46.70
39777;DHT22;25453;48.162;14.510;2023-03-01T13:07:20;11.70;47.00
39777;DHT22;25453;48.162;14.510;2023-03-01T13:12:45;11.50;47.50
39777;DHT22;25453;48.162;14.510;2023-03-01T13:15:32;11.50;47.50
39777;DHT22;25453;48.162;14.510;2023-03-01T13:18:00;11.50;47.30
39777;DHT22;25453;48.162;14.510;2023-03-01T13:31:04;11.20;47.80
39777;DHT22;25453;48.162;14.510;2023-03-01T13:36:00;11.10;48.10
39777;DHT22;25453;48.162;14.510;2023-03-01T13:41:03;11.00;48.70
39777;DHT22;25453;48.162;14.510;2023-03-01T13:43:32;11.00;48.30
39777;DHT22;25453;48.162;14.510;2023-03-01T13:46:00;11.00;48.70
39777;DHT22;25453;48.162;14.510;2023-03-01T13:48:29;10.90;48.20
39777;DHT22;25453;48.162;14.510;2023-03-01T13:51:07;10.90;48.40
39777;DHT22;25453;48.162;14.510;2023-03-01T13:53:36;10.80;48.60
39777;DHT22;25453;48.162;14.510;2023-03-01T13:56:07;10.70;48.80
39777;DHT22;25453;48.162;14.510;2023-03-01T13:58:46;10.70;49.00
39777;DHT22;25453;48.162;14.510;2023-03-01T14:01:21;10.60;49.30
39777;DHT22;25453;48.162;14.510;2023-03-01T14:03:48;10.60;49.30
39777;DHT22;25453;48.162;14.510;2023-03-01T14:06:17;10.60;49.50
39777;DHT22;25453;48.162;14.510;2023-03-01T14:08:48;10.60;49.90
39777;DHT22;25453;48.162;14.510;2023-03-01T14:16:44;10.70;50.60
39777;DHT22;25453;48.162;14.510;2023-03-01T14:24:31;10.90;50.30
39777;DHT22;25453;48.162;14.510;2023-03-01T14:27:02;10.90;49.70
39777;DHT22;25453;48.162;14.510;2023-03-01T14:29:36;10.80;49.80
39777;DHT22;25453;48.162;14.510;2023-03-01T14:34:43;10.70;50.00
39777;DHT22;25453;48.162;14.510;2023-03-01T14:39:48;10.60;50.00
39777;DHT22;25453;48.162;14.510;2023-03-01T14:42:15;10.60;50.10
39777;DHT22;25453;48.162;14.510;2023-03-01T14:44:43;10.50;50.30
39777;DHT22;25453;48.162;14.510;2023-03-01T14:47:15;10.40;50.10
39777;DHT22;25453;48.162;14.510;2023-03-01T14:49:44;10.30;50.30
39777;DHT22;25453;48.162;14.510;2023-03-01T14:52:21;10.20;50.60
39777;DHT22;25453;48.162;14.510;2023-03-01T14:54:49;10.20;50.90
39777;DHT22;25453;48.162;14.510;2023-03-01T14:57:18;10.20;51.00
39777;DHT22;25453;48.162;14.510;2023-03-01T14:59:46;10.20;50.90
39777;DHT22;25453;48.162;14.510;2023-03-01T15:02:15;10.20;51.00
39777;DHT22;25453;48.162;14.510;2023-03-01T15:04:45;10.20;51.20
39777;DHT22;25453;48.162;14.510;2023-03-01T15:07:13;10.10;51.40
39777;DHT22;25453;48.162;14.510;2023-03-01T15:09:41;10.20;51.50
39777;DHT22;25453;48.162;14.510;2023-03-01T15:14:54;10.10;51.20
39777;DHT22;25453;48.162;14.510;2023-03-01T15:19:57;10.00;51.00
39777;DHT22;25453;48.162;14.510;2023-03-01T15:22:25;10.00;51.40
39777;DHT22;25453;48.162;14.510;2023-03-01T15:24:52;9.90;51.50
39777;DHT22;25453;48.162;14.510;2023-03-01T15:27:20;9.90;51.70
39777;DHT22;25453;48.162;14.510;2023-03-01T15:29:58;9.80;51.60
39777;DHT22;25453;48.162;14.510;2023-03-01T15:34:53;9.70;52.00
39777;DHT22;25453;48.162;14.510;2023-03-01T15:37:37;9.70;52.20
39777;DHT22;25453;48.162;14.510;2023-03-01T15:42:44;9.50;52.00
39777;DHT22;25453;48.162;14.510;2023-03-01T15:45:20;9.50;52.20
39777;DHT22;25453;48.162;14.510;2023-03-01T15:47:48;9.40;52.40
39777;DHT22;25453;48.162;14.510;2023-03-01T15:50:18;9.40;52.30
39777;DHT22;25453;48.162;14.510;2023-03-01T15:52:45;9.30;52.40
39777;DHT22;25453;48.162;14.510;2023-03-01T15:55:20;9.20;52.90
39777;DHT22;25453;48.162;14.510;2023-03-01T15:57:47;9.10;53.00
39777;DHT22;25453;48.162;14.510;2023-03-01T16:00:14;9.10;53.30
39777;DHT22;25453;48.162;14.510;2023-03-01T16:02:42;9.00;53.30
39777;DHT22;25453;48.162;14.510;2023-03-01T16:05:15;9.00;53.50
39777;DHT22;25453;48.162;14.510;2023-03-01T16:07:44;8.90;53.50
39777;DHT22;25453;48.162;14.510;2023-03-01T16:10:11;8.90;53.70
39777;DHT22;25453;48.162;14.510;2023-03-01T16:12:37;8.90;53.70
39777;DHT22;25453;48.162;14.510;2023-03-01T16:15:28;8.90;53.90
39777;DHT22;25453;48.162;14.510;2023-03-01T16:17:56;8.80;53.80
39777;DHT22;25453;48.162;14.510;2023-03-01T16:20:24;8.80;53.90
39777;DHT22;25453;48.162;14.510;2023-03-01T16:22:59;8.70;53.90
39777;DHT22;25453;48.162;14.510;2023-03-01T16:25:29;8.70;54.20
39777;DHT22;25453;48.162;14.510;2023-03-01T16:27:56;8.70;54.30
39777;DHT22;25453;48.162;14.510;2023-03-01T16:30:25;8.60;54.20
39777;DHT22;25453;48.162;14.510;2023-03-01T16:32:52;8.60;54.30
39777;DHT22;25453;48.162;14.510;2023-03-01T16:35:20;8.50;54.20
39777;DHT22;25453;48.162;14.510;2023-03-01T16:37:47;8.50;54.60
39777;DHT22;25453;48.162;14.510;2023-03-01T16:42:44;8.40;54.70
39777;DHT22;25453;48.162;14.510;2023-03-01T16:45:11;8.40;54.70
39777;DHT22;25453;48.162;14.510;2023-03-01T16:47:50;8.30;54.90
39777;DHT22;25453;48.162;14.510;2023-03-01T16:50:21;8.30;55.00
39777;DHT22;25453;48.162;14.510;2023-03-01T16:52:48;8.30;55.10
39777;DHT22;25453;48.162;14.510;2023-03-01T16:55:15;8.20;55.10
39777;DHT22;25453;48.162;14.510;2023-03-01T16:57:42;8.20;55.20
39777;DHT22;25453;48.162;14.510;2023-03-01T17:00:09;8.10;55.40
39777;DHT22;25453;48.162;14.510;2023-03-01T17:02:37;8.10;55.60
39777;DHT22;25453;48.162;14.510;2023-03-01T17:05:04;8.10;55.50
39777;DHT22;25453;48.162;14.510;2023-03-01T17:07:31;8.10;55.60
39777;DHT22;25453;48.162;14.510;2023-03-01T17:10:03;8.10;55.80
39777;DHT22;25453;48.162;14.510;2023-03-01T17:12:30;8.00;55.60
39777;DHT22;25453;48.162;14.510;2023-03-01T17:14:58;8.00;55.90
39777;DHT22;25453;48.162;14.510;2023-03-01T17:17:25;8.00;56.00
39777;DHT22;25453;48.162;14.510;2023-03-01T17:19:53;7.90;55.80
39777;DHT22;25453;48.162;14.510;2023-03-01T17:22:20;7.90;56.00
39777;DHT22;25453;48.162;14.510;2023-03-01T17:24:47;7.90;56.10
39777;DHT22;25453;48.162;14.510;2023-03-01T17:27:14;7.90;56.20
39777;DHT22;25453;48.162;14.510;2023-03-01T17:29:42;7.90;56.30
39777;DHT22;25453;48.162;14.510;2023-03-01T17:32:11;7.80;56.30
39777;DHT22;25453;48.162;14.510;2023-03-01T17:34:38;7.80;56.30
39777;DHT22;25453;48.162;14.510;2023-03-01T17:37:06;7.80;56.40
39777;DHT22;25453;48.162;14.510;2023-03-01T17:39:33;7.80;56.40
39777;DHT22;25453;48.162;14.510;2023-03-01T17:42:03;7.80;56.60
39777;DHT22;25453;48.162;14.510;2023-03-01T17:44:31;7.80;56.60
39777;DHT22;25453;48.162;14.510;2023-03-01T17:47:03;7.70;56.60
39777;DHT22;25453;48.162;14.510;2023-03-01T17:49:30;7.70;56.50
39777;DHT22;25453;48.162;14.510;2023-03-01T17:51:57;7.70;56.60